createdAt,value
2022-11-19T00:01:26.624Z,-3.52
2022-11-19T00:03:54.056Z,-3.52
2022-11-19T00:06:26.965Z,-3.50
2022-11-19T00:08:55.015Z,-3.50
2022-11-19T00:11:46.503Z,-3.50
2022-11-19T00:14:15.724Z,-3.40
2022-11-19T00:16:46.384Z,-3.30
2022-11-19T00:19:13.635Z,-3.20
2022-11-19T00:21:40.304Z,-3.10
2022-11-19T00:24:08.394Z,-3.10
2022-11-19T00:26:34.841Z,-3.00
2022-11-19T00:29:01.293Z,-3.00
2022-11-19T00:31:27.811Z,-3.00
2022-11-19T00:33:54.988Z,-2.90
2022-11-19T00:36:23.066Z,-2.90
2022-11-19T00:38:49.782Z,-2.90
2022-11-19T00:41:16.274Z,-2.90
2022-11-19T00:43:48.880Z,-2.90
2022-11-19T00:46:30.598Z,-2.80
2022-11-19T00:48:59.784Z,-2.70
2022-11-19T00:51:29.956Z,-2.70
2022-11-19T00:53:57.459Z,-2.70
2022-11-19T00:56:27.053Z,-2.78
2022-11-19T00:58:54.254Z,-2.70
2022-11-19T01:01:25.143Z,-2.70
2022-11-19T01:03:52.656Z,-2.68
2022-11-19T01:06:23.182Z,-2.66
2022-11-19T01:08:52.104Z,-2.70
2022-11-19T01:11:27.144Z,-2.70
2022-11-19T01:13:54.885Z,-2.70
2022-11-19T01:16:43.863Z,-2.70
2022-11-19T01:19:11.752Z,-2.68
2022-11-19T01:21:38.483Z,-2.60
2022-11-19T01:24:06.728Z,-2.60
2022-11-19T01:26:33.205Z,-2.60
2022-11-19T01:28:59.667Z,-2.62
2022-11-19T01:31:29.585Z,-2.66
2022-11-19T01:33:57.065Z,-2.70
2022-11-19T01:36:27.611Z,-2.72
2022-11-19T01:38:55.028Z,-2.70
2022-11-19T01:41:27.060Z,-2.70
2022-11-19T01:44:04.266Z,-2.70
2022-11-19T01:46:35.631Z,-2.70
2022-11-19T01:49:12.593Z,-2.76
2022-11-19T01:51:48.926Z,-2.80
2022-11-19T01:54:38.873Z,-2.88
2022-11-19T01:57:13.158Z,-2.70
2022-11-19T01:59:42.023Z,-2.70
2022-11-19T02:02:08.755Z,-2.60
2022-11-19T02:04:36.234Z,-2.54
2022-11-19T02:07:02.813Z,-2.50
2022-11-19T02:09:29.820Z,-2.66
2022-11-19T02:12:35.661Z,-2.70
2022-11-19T02:15:21.609Z,-2.68
2022-11-19T02:17:57.080Z,-2.60
2022-11-19T02:21:21.696Z,-2.60
2022-11-19T02:24:21.063Z,-2.52
2022-11-19T02:27:21.935Z,-2.60
2022-11-19T02:30:17.622Z,-2.62
2022-11-19T02:33:28.202Z,-2.70
2022-11-19T02:36:23.278Z,-2.70
2022-11-19T02:38:59.228Z,-2.80
2022-11-19T02:41:44.860Z,-2.90
2022-11-19T02:44:46.905Z,-2.80
2022-11-19T02:47:22.224Z,-2.70
2022-11-19T02:49:54.215Z,-2.72
2022-11-19T02:52:21.819Z,-2.70
2022-11-19T02:54:48.216Z,-2.60
2022-11-19T02:57:14.771Z,-2.60
2022-11-19T03:00:12.490Z,-2.60
2022-11-19T03:03:09.630Z,-2.60
2022-11-19T03:05:44.639Z,-2.70
2022-11-19T03:08:11.435Z,-2.80
2022-11-19T03:11:07.217Z,-2.80
2022-11-19T03:14:09.901Z,-2.80
2022-11-19T03:16:43.014Z,-2.70
2022-11-19T03:19:40.424Z,-2.66
2022-11-19T03:22:18.102Z,-2.60
2022-11-19T03:25:06.291Z,-2.60
2022-11-19T03:27:41.197Z,-2.60
2022-11-19T03:30:10.350Z,-2.60
2022-11-19T03:33:02.661Z,-2.70
2022-11-19T03:35:45.181Z,-2.70
2022-11-19T03:38:18.959Z,-2.70
2022-11-19T03:40:48.999Z,-2.76
2022-11-19T03:43:21.892Z,-2.80
2022-11-19T03:45:52.559Z,-2.80
2022-11-19T03:48:22.896Z,-2.74
2022-11-19T03:51:00.903Z,-2.70
2022-11-19T03:53:28.834Z,-2.62
2022-11-19T03:56:05.360Z,-2.60
2022-11-19T03:58:40.598Z,-2.70
2022-11-19T04:01:08.100Z,-2.70
2022-11-19T04:03:34.503Z,-2.80
2022-11-19T04:06:01.066Z,-2.80
2022-11-19T04:08:27.449Z,-2.90
2022-11-19T04:10:53.888Z,-3.00
2022-11-19T04:13:20.299Z,-3.10
2022-11-19T04:15:46.750Z,-3.02
2022-11-19T04:18:13.188Z,-3.10
2022-11-19T04:20:39.632Z,-3.10
2022-11-19T04:23:06.062Z,-3.10
2022-11-19T04:25:32.874Z,-3.10
2022-11-19T04:27:59.284Z,-3.10
2022-11-19T04:30:25.847Z,-3.12
2022-11-19T04:32:52.197Z,-3.24
2022-11-19T04:35:22.041Z,-3.30
2022-11-19T04:37:49.032Z,-3.40
2022-11-19T04:40:15.535Z,-3.40
2022-11-19T04:42:41.938Z,-3.50
2022-11-19T04:45:09.944Z,-3.50
2022-11-19T04:47:36.407Z,-3.60
2022-11-19T04:50:02.965Z,-3.70
2022-11-19T04:52:36.323Z,-3.80
2022-11-19T04:55:05.921Z,-3.80
2022-11-19T04:57:32.635Z,-3.80
2022-11-19T04:59:58.967Z,-3.80
2022-11-19T05:02:25.366Z,-3.74
2022-11-19T05:04:51.747Z,-3.66
2022-11-19T05:07:18.372Z,-3.60
2022-11-19T05:09:44.755Z,-3.60
2022-11-19T05:12:11.135Z,-3.70
2022-11-19T05:14:38.469Z,-3.80
2022-11-19T05:17:05.046Z,-3.70
2022-11-19T05:19:31.480Z,-3.70
2022-11-19T05:21:57.836Z,-3.70
2022-11-19T05:24:24.244Z,-3.60
2022-11-19T05:26:50.771Z,-3.60
2022-11-19T05:29:17.662Z,-3.60
2022-11-19T05:31:44.301Z,-3.50
2022-11-19T05:34:10.742Z,-3.60
2022-11-19T05:36:37.106Z,-3.50
2022-11-19T05:39:03.621Z,-3.50
2022-11-19T05:41:30.052Z,-3.50
2022-11-19T05:43:56.856Z,-3.50
2022-11-19T05:46:23.242Z,-3.50
2022-11-19T05:48:49.633Z,-3.60
2022-11-19T05:51:16.800Z,-3.60
2022-11-19T05:53:43.845Z,-3.60
2022-11-19T05:56:10.759Z,-3.60
2022-11-19T05:58:37.173Z,-3.60
2022-11-19T06:01:04.496Z,-3.50
2022-11-19T06:03:31.467Z,-3.50
2022-11-19T06:05:58.112Z,-3.60
2022-11-19T06:08:24.552Z,-3.60
2022-11-19T06:10:50.907Z,-3.60
2022-11-19T06:13:17.414Z,-3.60
2022-11-19T06:15:43.837Z,-3.62
2022-11-19T06:18:10.241Z,-3.60
2022-11-19T06:20:36.681Z,-3.60
2022-11-19T06:23:03.064Z,-3.50
2022-11-19T06:25:29.521Z,-3.48
2022-11-19T06:27:55.936Z,-3.50
2022-11-19T06:30:22.496Z,-3.50
2022-11-19T06:32:48.934Z,-3.42
2022-11-19T06:35:15.496Z,-3.40
2022-11-19T06:37:41.927Z,-3.40
2022-11-19T06:40:09.197Z,-3.50
2022-11-19T06:42:38.469Z,-3.50
2022-11-19T06:45:14.698Z,-3.52
2022-11-19T06:47:42.320Z,-3.60
2022-11-19T06:50:10.983Z,-3.60
2022-11-19T06:52:37.953Z,-3.80
2022-11-19T06:55:06.183Z,-3.84
2022-11-19T06:57:32.635Z,-3.90
2022-11-19T06:59:58.975Z,-4.00
2022-11-19T07:02:25.453Z,-4.10
2022-11-19T07:04:51.860Z,-4.10
2022-11-19T07:07:18.488Z,-4.10
2022-11-19T07:09:44.999Z,-4.20
2022-11-19T07:12:11.469Z,-4.30
2022-11-19T07:14:37.929Z,-4.34
2022-11-19T07:17:05.261Z,-4.30
2022-11-19T07:19:31.887Z,-4.18
2022-11-19T07:21:58.303Z,-4.00
2022-11-19T07:24:24.805Z,-3.90
2022-11-19T07:26:51.155Z,-3.80
2022-11-19T07:29:18.592Z,-3.76
2022-11-19T07:31:49.481Z,-3.70
2022-11-19T07:34:17.770Z,-3.72
2022-11-19T07:36:45.480Z,-3.80
2022-11-19T07:39:12.655Z,-3.74
2022-11-19T07:41:58.145Z,-3.70
2022-11-19T07:44:24.904Z,-3.70
2022-11-19T07:46:51.663Z,-3.68
2022-11-19T07:49:19.362Z,-3.60
2022-11-19T07:51:46.156Z,-3.50
2022-11-19T07:54:14.093Z,-3.50
2022-11-19T07:56:40.569Z,-3.50
2022-11-19T07:59:06.973Z,-3.40
2022-11-19T08:01:33.555Z,-3.30
2022-11-19T08:04:00.057Z,-3.30
2022-11-19T08:06:29.824Z,-3.40
2022-11-19T08:08:57.110Z,-3.40
2022-11-19T08:11:24.822Z,-3.30
2022-11-19T08:13:52.553Z,-3.20
2022-11-19T08:16:38.191Z,-3.20
2022-11-19T08:19:09.485Z,-3.10
2022-11-19T08:21:40.830Z,-3.00
2022-11-19T08:24:09.136Z,-3.00
2022-11-19T08:26:36.567Z,-2.90
2022-11-19T08:29:04.013Z,-2.90
2022-11-19T08:31:30.724Z,-2.90
2022-11-19T08:33:57.610Z,-2.88
2022-11-19T08:36:24.076Z,-2.90
2022-11-19T08:38:50.451Z,-2.82
2022-11-19T08:41:35.716Z,-2.70
2022-11-19T08:44:03.043Z,-2.70
2022-11-19T08:46:29.597Z,-2.78
2022-11-19T08:48:56.591Z,-2.70
2022-11-19T08:51:23.008Z,-2.68
2022-11-19T08:53:52.935Z,-2.60
2022-11-19T08:56:21.068Z,-2.50
2022-11-19T08:58:47.999Z,-2.40
2022-11-19T09:01:17.015Z,-2.40
2022-11-19T09:03:44.346Z,-2.40
2022-11-19T09:06:11.904Z,-2.40
2022-11-19T09:08:39.565Z,-2.30
2022-11-19T09:11:12.907Z,-2.30
2022-11-19T09:13:39.845Z,-2.28
2022-11-19T09:16:08.532Z,-2.20
2022-11-19T09:18:39.163Z,-2.20
2022-11-19T09:21:08.023Z,-2.10
2022-11-19T09:23:34.657Z,-2.10
2022-11-19T09:26:08.510Z,-2.00
2022-11-19T09:28:36.160Z,-2.00
2022-11-19T09:31:12.883Z,-2.00
2022-11-19T09:33:42.686Z,-2.00
2022-11-19T09:36:11.198Z,-1.90
2022-11-19T09:38:39.235Z,-1.90
2022-11-19T09:41:17.556Z,-1.80
2022-11-19T09:43:56.777Z,-1.80
2022-11-19T09:47:16.083Z,-1.70
2022-11-19T09:50:23.268Z,-1.60
2022-11-19T09:53:17.357Z,-1.60
2022-11-19T09:55:47.684Z,-1.60
2022-11-19T09:58:51.094Z,-1.60
2022-11-19T10:01:19.143Z,-1.50
2022-11-19T10:03:53.325Z,-1.50
2022-11-19T10:06:29.267Z,-1.50
2022-11-19T10:09:26.953Z,-1.40
2022-11-19T10:12:19.992Z,-1.40
2022-11-19T10:15:14.700Z,-1.40
2022-11-19T10:18:07.460Z,-1.30
2022-11-19T10:20:59.925Z,-1.30
2022-11-19T10:23:48.576Z,-1.20
2022-11-19T10:26:26.687Z,-1.20
2022-11-19T10:28:58.168Z,-1.22
2022-11-19T10:31:37.488Z,-1.20
2022-11-19T10:34:30.386Z,-1.16
2022-11-19T10:37:04.773Z,-1.10
2022-11-19T10:39:38.045Z,-1.10
2022-11-19T10:42:24.547Z,-1.10
2022-11-19T10:45:28.552Z,-1.04
2022-11-19T10:48:43.306Z,-1.00
2022-11-19T10:51:22.647Z,-0.92
2022-11-19T10:53:51.524Z,-0.96
2022-11-19T10:56:22.784Z,-1.00
2022-11-19T10:59:05.421Z,-0.90
2022-11-19T11:01:38.648Z,-0.90
2022-11-19T11:04:20.135Z,-0.96
2022-11-19T11:06:55.445Z,-1.00
2022-11-19T11:09:32.388Z,-1.00
2022-11-19T11:12:28.943Z,-1.08
2022-11-19T11:15:01.497Z,-1.00
2022-11-19T11:17:31.625Z,-0.98
2022-11-19T11:20:05.533Z,-0.90
2022-11-19T11:22:33.365Z,-0.80
2022-11-19T11:25:05.874Z,-0.72
2022-11-19T11:27:35.724Z,-0.70
2022-11-19T11:30:16.231Z,-0.70
2022-11-19T11:32:43.772Z,-0.60
2022-11-19T11:35:31.857Z,-0.60
2022-11-19T11:38:04.080Z,-0.56
2022-11-19T11:40:31.416Z,-0.50
2022-11-19T11:42:58.490Z,-0.56
2022-11-19T11:45:35.120Z,-0.50
2022-11-19T11:48:19.399Z,-0.50
2022-11-19T11:50:46.813Z,-0.48
2022-11-19T11:53:17.768Z,-0.40
2022-11-19T11:55:44.268Z,-0.44
2022-11-19T11:58:31.439Z,-0.48
2022-11-19T12:01:16.027Z,-0.42
2022-11-19T12:03:58.341Z,-0.40
2022-11-19T12:06:35.510Z,-0.40
2022-11-19T12:09:31.910Z,-0.32
2022-11-19T12:12:21.115Z,-0.32
2022-11-19T12:15:23.727Z,-0.40
2022-11-19T12:18:05.794Z,-0.40
2022-11-19T12:20:59.399Z,-0.40
2022-11-19T12:23:58.021Z,-0.40
2022-11-19T12:26:45.156Z,-0.40
2022-11-19T12:29:17.683Z,-0.40
2022-11-19T12:32:27.906Z,-0.34
2022-11-19T12:35:20.119Z,-0.30
2022-11-19T12:38:24.913Z,-0.30
2022-11-19T12:41:21.321Z,-0.30
2022-11-19T12:43:57.733Z,-0.30
2022-11-19T12:46:50.225Z,-0.30
2022-11-19T12:49:46.970Z,-0.30
2022-11-19T12:52:35.521Z,-0.24
2022-11-19T12:55:36.754Z,-0.26
2022-11-19T12:58:52.779Z,-0.30
2022-11-19T13:01:27.048Z,-0.28
2022-11-19T13:04:16.776Z,-0.28
2022-11-19T13:06:57.613Z,-0.20
2022-11-19T13:09:46.011Z,-0.20
2022-11-19T13:12:24.315Z,-0.20
2022-11-19T13:15:00.734Z,-0.20
2022-11-19T13:17:35.164Z,-0.20
2022-11-19T13:20:15.318Z,-0.20
2022-11-19T13:22:47.020Z,-0.20
2022-11-19T13:25:24.891Z,-0.20
2022-11-19T13:27:54.648Z,-0.20
2022-11-19T13:30:26.942Z,-0.20
2022-11-19T13:33:11.423Z,-0.20
2022-11-19T13:35:49.535Z,-0.20
2022-11-19T13:38:56.952Z,-0.20
2022-11-19T13:41:58.729Z,-0.20
2022-11-19T13:44:43.620Z,-0.28
2022-11-19T13:47:45.513Z,-0.30
2022-11-19T13:50:22.192Z,-0.30
2022-11-19T13:53:01.796Z,-0.30
2022-11-19T13:55:28.097Z,-0.34
2022-11-19T13:57:56.880Z,-0.40
2022-11-19T14:00:27.769Z,-0.40
2022-11-19T14:03:28.420Z,-0.40
2022-11-19T14:06:46.570Z,-0.40
2022-11-19T14:09:41.418Z,-0.50
2022-11-19T14:12:34.596Z,-0.50
2022-11-19T14:15:44.407Z,-0.60
2022-11-19T14:19:03.564Z,-0.60
2022-11-19T14:21:48.419Z,-0.70
2022-11-19T14:24:42.577Z,-0.70
2022-11-19T14:27:27.664Z,-0.80
2022-11-19T14:30:10.727Z,-0.80
2022-11-19T14:32:47.179Z,-0.90
2022-11-19T14:35:25.935Z,-0.94
2022-11-19T14:38:32.144Z,-1.00
2022-11-19T14:41:18.183Z,-1.02
2022-11-19T14:44:32.209Z,-1.10
2022-11-19T14:47:30.034Z,-1.20
2022-11-19T14:50:00.844Z,-1.20
2022-11-19T14:52:32.971Z,-1.30
2022-11-19T14:55:23.673Z,-1.34
2022-11-19T14:58:03.755Z,-1.40
2022-11-19T15:00:39.935Z,-1.50
2022-11-19T15:03:15.659Z,-1.50
2022-11-19T15:05:46.271Z,-1.50
2022-11-19T15:08:18.487Z,-1.60
2022-11-19T15:11:07.886Z,-1.60
2022-11-19T15:13:44.131Z,-1.70
2022-11-19T15:16:17.560Z,-1.70
2022-11-19T15:19:05.954Z,-1.72
2022-11-19T15:22:13.677Z,-1.80
2022-11-19T15:24:48.383Z,-1.80
2022-11-19T15:27:26.591Z,-1.80
2022-11-19T15:30:22.040Z,-1.90
2022-11-19T15:33:24.476Z,-1.90
2022-11-19T15:36:45.464Z,-1.90
2022-11-19T15:39:26.355Z,-1.90
2022-11-19T15:42:01.913Z,-1.96
2022-11-19T15:44:40.799Z,-2.00
2022-11-19T15:47:17.634Z,-2.00
2022-11-19T15:49:46.600Z,-2.06
2022-11-19T15:52:21.943Z,-2.10
2022-11-19T15:54:48.283Z,-2.10
2022-11-19T15:57:17.407Z,-2.10
2022-11-19T15:59:51.462Z,-2.10
2022-11-19T16:02:32.291Z,-2.10
2022-11-19T16:04:59.121Z,-2.10
2022-11-19T16:07:29.920Z,-2.10
2022-11-19T16:09:59.207Z,-2.10
2022-11-19T16:12:46.770Z,-2.00
2022-11-19T16:15:44.203Z,-2.00
2022-11-19T16:18:16.963Z,-2.00
2022-11-19T16:20:50.244Z,-2.00
2022-11-19T16:23:21.572Z,-2.10
2022-11-19T16:25:49.135Z,-2.10
2022-11-19T16:28:26.061Z,-2.10
2022-11-19T16:31:03.139Z,-2.20
2022-11-19T16:33:32.395Z,-2.20
2022-11-19T16:36:19.801Z,-2.24
2022-11-19T16:38:50.200Z,-2.30
2022-11-19T16:41:38.572Z,-2.30
2022-11-19T16:44:13.878Z,-2.30
2022-11-19T16:46:40.799Z,-2.36
2022-11-19T16:49:30.207Z,-2.40
2022-11-19T16:51:58.000Z,-2.40
2022-11-19T16:54:48.353Z,-2.40
2022-11-19T16:57:20.429Z,-2.50
2022-11-19T17:00:02.435Z,-2.50
2022-11-19T17:02:36.333Z,-2.60
2022-11-19T17:05:16.961Z,-2.60
2022-11-19T17:07:51.490Z,-2.60
2022-11-19T17:10:24.571Z,-2.70
2022-11-19T17:13:04.242Z,-2.70
2022-11-19T17:15:42.479Z,-2.80
2022-11-19T17:18:35.502Z,-2.80
2022-11-19T17:21:07.024Z,-2.80
2022-11-19T17:23:47.335Z,-2.80
2022-11-19T17:26:22.005Z,-2.78
2022-11-19T17:29:00.231Z,-2.74
2022-11-19T17:31:28.000Z,-2.70
2022-11-19T17:34:05.015Z,-2.70
2022-11-19T17:36:31.406Z,-2.70
2022-11-19T17:38:58.438Z,-2.70
2022-11-19T17:41:47.987Z,-2.70
2022-11-19T17:44:34.466Z,-2.70
2022-11-19T17:47:24.037Z,-2.70
2022-11-19T17:49:52.312Z,-2.70
2022-11-19T17:52:31.114Z,-2.70
2022-11-19T17:55:11.852Z,-2.62
2022-11-19T17:57:42.478Z,-2.60
2022-11-19T18:00:10.687Z,-2.60
2022-11-19T18:02:37.156Z,-2.60
2022-11-19T18:05:15.538Z,-2.60
2022-11-19T18:07:42.032Z,-2.52
2022-11-19T18:10:09.330Z,-2.50
2022-11-19T18:12:36.000Z,-2.50
2022-11-19T18:15:02.542Z,-2.48
2022-11-19T18:17:28.929Z,-2.40
2022-11-19T18:19:55.371Z,-2.40
2022-11-19T18:22:21.934Z,-2.38
2022-11-19T18:24:51.270Z,-2.30
2022-11-19T18:27:18.094Z,-2.30
2022-11-19T18:29:44.885Z,-2.30
2022-11-19T18:32:15.278Z,-2.30
2022-11-19T18:34:41.726Z,-2.30
2022-11-19T18:37:09.003Z,-2.30
2022-11-19T18:39:35.496Z,-2.30
2022-11-19T18:42:02.146Z,-2.30
2022-11-19T18:44:34.236Z,-2.30
2022-11-19T18:47:05.100Z,-2.30
2022-11-19T18:49:33.436Z,-2.28
2022-11-19T18:52:01.174Z,-2.20
2022-11-19T18:54:27.681Z,-2.20
2022-11-19T18:56:54.247Z,-2.20
2022-11-19T18:59:21.181Z,-2.20
2022-11-19T19:01:47.707Z,-2.20
2022-11-19T19:04:14.772Z,-2.20
2022-11-19T19:06:42.196Z,-2.20
2022-11-19T19:09:10.338Z,-2.10
2022-11-19T19:11:56.362Z,-2.10
2022-11-19T19:14:22.842Z,-2.10
2022-11-19T19:16:50.872Z,-2.02
2022-11-19T19:19:20.074Z,-2.00
2022-11-19T19:21:47.423Z,-1.98
2022-11-19T19:24:14.015Z,-1.90
2022-11-19T19:26:40.593Z,-1.90
2022-11-19T19:29:07.464Z,-1.90
2022-11-19T19:31:35.942Z,-1.88
2022-11-19T19:34:02.914Z,-1.82
2022-11-19T19:36:30.155Z,-1.80
2022-11-19T19:38:56.703Z,-1.80
2022-11-19T19:41:26.057Z,-1.80
2022-11-19T19:43:55.403Z,-1.80
2022-11-19T19:46:24.140Z,-1.80
2022-11-19T19:48:54.020Z,-1.80
2022-11-19T19:51:24.007Z,-1.80
2022-11-19T19:53:52.347Z,-1.80
2022-11-19T19:56:23.614Z,-1.80
2022-11-19T19:58:51.246Z,-1.80
2022-11-19T20:01:24.609Z,-1.88
2022-11-19T20:03:54.711Z,-1.90
2022-11-19T20:06:23.656Z,-1.90
2022-11-19T20:08:50.643Z,-1.90
2022-11-19T20:11:21.784Z,-1.90
2022-11-19T20:13:48.201Z,-1.98
2022-11-19T20:16:26.153Z,-2.00
2022-11-19T20:18:53.800Z,-2.00
2022-11-19T20:21:24.875Z,-2.00
2022-11-19T20:23:53.533Z,-2.00
2022-11-19T20:26:27.791Z,-2.08
2022-11-19T20:28:57.686Z,-2.10
2022-11-19T20:31:26.039Z,-2.10
2022-11-19T20:33:58.949Z,-2.10
2022-11-19T20:36:28.215Z,-2.20
2022-11-19T20:38:57.414Z,-2.20
2022-11-19T20:41:42.917Z,-2.30
2022-11-19T20:44:20.120Z,-2.30
2022-11-19T20:47:03.904Z,-2.40
2022-11-19T20:49:36.308Z,-2.40
2022-11-19T20:52:03.476Z,-2.50
2022-11-19T20:54:30.319Z,-2.50
2022-11-19T20:56:58.015Z,-2.52
2022-11-19T20:59:26.516Z,-2.60
2022-11-19T21:01:56.003Z,-2.60
2022-11-19T21:04:25.951Z,-2.60
2022-11-19T21:06:53.833Z,-2.60
2022-11-19T21:09:20.584Z,-2.60
2022-11-19T21:11:47.938Z,-2.60
2022-11-19T21:14:14.459Z,-2.64
2022-11-19T21:16:40.991Z,-2.60
2022-11-19T21:19:07.506Z,-2.60
2022-11-19T21:21:35.255Z,-2.60
2022-11-19T21:24:01.714Z,-2.50
2022-11-19T21:26:29.075Z,-2.46
2022-11-19T21:28:58.718Z,-2.40
2022-11-19T21:31:38.682Z,-2.40
2022-11-19T21:34:18.127Z,-2.40
2022-11-19T21:36:46.596Z,-2.40
2022-11-19T21:39:16.562Z,-2.40
2022-11-19T21:41:43.732Z,-2.40
2022-11-19T21:44:13.322Z,-2.40
2022-11-19T21:46:43.107Z,-2.40
2022-11-19T21:49:09.907Z,-2.42
2022-11-19T21:51:36.270Z,-2.50
2022-11-19T21:54:02.782Z,-2.50
2022-11-19T21:56:37.069Z,-2.50
2022-11-19T21:59:05.213Z,-2.50
2022-11-19T22:01:31.579Z,-2.50
2022-11-19T22:03:58.156Z,-2.50
2022-11-19T22:06:24.514Z,-2.54
2022-11-19T22:08:50.863Z,-2.60
2022-11-19T22:11:29.282Z,-2.60
2022-11-19T22:14:07.996Z,-2.70
2022-11-19T22:16:39.721Z,-2.72
2022-11-19T22:19:06.528Z,-2.80
2022-11-19T22:21:34.000Z,-2.90
2022-11-19T22:24:00.548Z,-2.90
2022-11-19T22:26:27.182Z,-2.90
2022-11-19T22:28:54.079Z,-2.90
2022-11-19T22:31:20.573Z,-2.80
2022-11-19T22:33:49.743Z,-2.84
2022-11-19T22:36:16.167Z,-2.90
2022-11-19T22:38:42.531Z,-2.88
2022-11-19T22:41:15.544Z,-2.80
2022-11-19T22:43:43.333Z,-2.80
2022-11-19T22:46:14.789Z,-2.90
2022-11-19T22:48:41.583Z,-2.90
2022-11-19T22:51:20.983Z,-2.90
2022-11-19T22:53:49.491Z,-2.90
2022-11-19T22:56:20.633Z,-2.90
2022-11-19T22:58:48.883Z,-2.90
2022-11-19T23:01:26.865Z,-2.90
2022-11-19T23:03:55.456Z,-2.90
2022-11-19T23:06:23.053Z,-2.90
2022-11-19T23:08:50.416Z,-2.88
2022-11-19T23:11:40.296Z,-2.90
2022-11-19T23:14:13.895Z,-2.90
2022-11-19T23:16:41.798Z,-2.80
2022-11-19T23:19:09.203Z,-2.80
2022-11-19T23:21:36.492Z,-2.80
2022-11-19T23:24:04.379Z,-2.70
2022-11-19T23:26:32.799Z,-2.70
2022-11-19T23:29:00.179Z,-2.70
2022-11-19T23:31:36.563Z,-2.70
2022-11-19T23:34:04.240Z,-2.60
2022-11-19T23:36:37.695Z,-2.60
2022-11-19T23:39:06.441Z,-2.60
2022-11-19T23:41:34.027Z,-2.50
2022-11-19T23:44:01.635Z,-2.50
2022-11-19T23:46:32.337Z,-2.50
2022-11-19T23:48:59.893Z,-2.50
2022-11-19T23:51:36.031Z,-2.50
2022-11-19T23:54:03.515Z,-2.52
2022-11-19T23:56:32.498Z,-2.50
2022-11-19T23:59:01.581Z,-2.50
